Beloit, Kansas
Current Conditions -  °F | °C
As of 8:55 AM on Friday 19 Dec 2014 (Local Time) from KCNK Reporting Station
Haze Haze  
Wind Chill: 23°   Ceiling: 1700
Heat Index: 30°   Visibility: 4mi
Dew Point: 29°   Wind: 7mph
Humidity: 96%   Direction: 160°SSE
Pressure: 30.21"   Gusts: NA
Location:  39.46°N, 98.11°W
Report Text: KCNK 191455Z AUTO 16006KT 4SM BR OVC017 M01/M02 A3021 RMK AO2 SLP244 T10111017 53007
Loading
Personal Weather Stations






























Interactive Weather Map New forecast layout! Learn more

10-Day Weather Forecast

Advertisements
Track Severe Weather on mobile